Decoded Metar for LQSA (SARAJEVO in BOSNIA-HERCEGOVINA) (IATA:SJJ) | Meteo·Mobile Aviation Weather
aviador You're here:

LQSA Decoded Metar

SARAJEVO in BOSNIA-HERCEGOVINA
Report Time2018-11-18 01:00:00
UTC Time2018-11-18 01:20:18
Flight Rules vfr VFR
Wind320° at 05 kt
W.Decomp.*RWY 30: 4.8 kt HW 1.5 kt RCW
W.Rank320° ranks 5
Current wind is above 320° avg. (4.6)
Visibility9999 m
Phenomena:N/A
Clouds:Broken 030 Hf
Expected CloudBase > 1,600 ft AGL from Temp-Dew spread
Ceiling3,000 ft
Temp02°C (ISA -10)
Dew Point-2°C (75% RH)
AAT-2.1°C
QNH1023 hPa
Density Alt246 ft
Elevation1,677 ft
Report Wrong Elevation
Raw Report
LQSA 180100Z 32005KT 9999 BKN030 02/M02 Q1023=

Extra information for LQSA:More info

Metar Taf Metar & Taf Last 4 Metars F.Rules Stats Wind Profile Meteogram Temp Stats Airport Information Weather charts Add Link Nearby VenuesMetar ALERT Operation Metar Decoded Social comments